createdAt,value
2022-11-23T00:01:29.997Z,6.53
2022-11-23T00:03:58.960Z,6.54
2022-11-23T00:06:26.616Z,6.50
2022-11-23T00:08:54.528Z,6.55
2022-11-23T00:11:23.601Z,6.59
2022-11-23T00:13:51.347Z,6.62
2022-11-23T00:16:30.267Z,6.62
2022-11-23T00:18:59.562Z,6.61
2022-11-23T00:21:28.601Z,6.60
2022-11-23T00:23:55.747Z,6.61
2022-11-23T00:26:22.922Z,6.63
2022-11-23T00:28:50.114Z,6.64
2022-11-23T00:31:19.459Z,6.59
2022-11-23T00:33:54.718Z,6.64
2022-11-23T00:36:24.089Z,6.59
2022-11-23T00:38:54.770Z,6.55
2022-11-23T00:41:24.486Z,6.53
2022-11-23T00:43:51.845Z,6.53
2022-11-23T00:46:24.018Z,6.41
2022-11-23T00:48:53.047Z,6.43
2022-11-23T00:51:23.478Z,6.42
2022-11-23T00:53:51.665Z,6.45
2022-11-23T00:56:20.878Z,6.47
2022-11-23T00:58:56.039Z,6.40
2022-11-23T01:01:26.297Z,6.41
2022-11-23T01:03:56.459Z,6.39
2022-11-23T01:06:29.206Z,6.37
2022-11-23T01:09:02.660Z,6.34
2022-11-23T01:11:31.319Z,6.35
2022-11-23T01:13:58.758Z,6.27
2022-11-23T01:16:38.079Z,6.28
2022-11-23T01:19:08.478Z,6.31
2022-11-23T01:21:36.918Z,6.32
2022-11-23T01:24:13.138Z,6.29
2022-11-23T01:26:41.200Z,6.32
2022-11-23T01:29:08.840Z,6.27
2022-11-23T01:31:43.204Z,6.22
2022-11-23T01:34:16.317Z,6.24
2022-11-23T01:36:44.442Z,6.28
2022-11-23T01:39:12.499Z,6.19
2022-11-23T01:41:41.382Z,6.18
2022-11-23T01:44:32.179Z,6.14
2022-11-23T01:47:01.558Z,6.21
2022-11-23T01:49:41.418Z,6.14
2022-11-23T01:52:15.379Z,6.10
2022-11-23T01:54:49.080Z,6.09
2022-11-23T01:57:40.982Z,6.06
2022-11-23T02:00:08.879Z,6.05
2022-11-23T02:02:50.319Z,6.01
2022-11-23T02:05:19.899Z,6.02
2022-11-23T02:07:49.673Z,6.07
2022-11-23T02:10:17.648Z,6.01
2022-11-23T02:12:44.710Z,6.01
2022-11-23T02:15:12.744Z,6.02
2022-11-23T02:17:42.280Z,6.00
2022-11-23T02:20:16.798Z,6.04
2022-11-23T02:23:13.128Z,6.02
2022-11-23T02:25:51.501Z,6.02
2022-11-23T02:28:33.119Z,6.01
2022-11-23T02:31:01.619Z,6.01
2022-11-23T02:33:29.547Z,6.03
2022-11-23T02:36:00.587Z,6.07
2022-11-23T02:38:34.320Z,6.02
2022-11-23T02:41:01.540Z,6.04
2022-11-23T02:43:28.689Z,6.04
2022-11-23T02:46:02.961Z,6.04
2022-11-23T02:48:29.989Z,6.05
2022-11-23T02:50:56.900Z,6.04
2022-11-23T02:53:24.460Z,6.08
2022-11-23T02:55:53.519Z,6.06
2022-11-23T02:58:20.579Z,6.06
2022-11-23T03:00:47.683Z,6.06
2022-11-23T03:03:19.146Z,6.05
2022-11-23T03:05:46.499Z,6.04
2022-11-23T03:08:13.499Z,6.06
2022-11-23T03:10:41.098Z,6.03
2022-11-23T03:13:08.880Z,6.00
2022-11-23T03:15:38.139Z,5.99
2022-11-23T03:18:06.066Z,5.99
2022-11-23T03:20:35.038Z,6.01
2022-11-23T03:23:02.040Z,6.02
2022-11-23T03:25:29.117Z,5.99
2022-11-23T03:27:58.420Z,6.01
2022-11-23T03:30:25.459Z,6.02
2022-11-23T03:32:53.799Z,5.99
2022-11-23T03:35:21.148Z,5.98
2022-11-23T03:38:06.783Z,6.00
2022-11-23T03:40:34.644Z,5.94
2022-11-23T03:43:25.101Z,5.94
2022-11-23T03:45:52.679Z,5.98
2022-11-23T03:48:19.906Z,5.95
2022-11-23T03:50:49.358Z,5.95
2022-11-23T03:53:16.465Z,5.90
2022-11-23T03:55:46.680Z,5.91
2022-11-23T03:58:15.279Z,5.89
2022-11-23T04:00:42.880Z,5.89
2022-11-23T04:03:12.919Z,5.88
2022-11-23T04:05:58.479Z,5.86
2022-11-23T04:08:34.486Z,5.87
2022-11-23T04:11:07.008Z,5.84
2022-11-23T04:13:39.680Z,5.84
2022-11-23T04:16:08.518Z,5.81
2022-11-23T04:18:36.618Z,5.84
2022-11-23T04:21:04.680Z,5.81
2022-11-23T04:23:31.918Z,5.82
2022-11-23T04:25:58.939Z,5.83
2022-11-23T04:28:26.100Z,5.81
2022-11-23T04:30:53.686Z,5.83
2022-11-23T04:33:20.787Z,5.84
2022-11-23T04:35:47.860Z,5.88
2022-11-23T04:38:15.400Z,5.82
2022-11-23T04:40:43.119Z,5.85
2022-11-23T04:43:10.806Z,5.85
2022-11-23T04:45:42.380Z,5.85
2022-11-23T04:48:17.478Z,5.88
2022-11-23T04:50:46.771Z,5.87
2022-11-23T04:53:19.518Z,5.88
2022-11-23T04:55:47.861Z,5.89
2022-11-23T04:58:16.878Z,5.89
2022-11-23T05:00:45.153Z,5.89
2022-11-23T05:03:13.939Z,5.89
2022-11-23T05:05:42.698Z,5.89
2022-11-23T05:08:10.322Z,5.90
2022-11-23T05:10:57.999Z,5.87
2022-11-23T05:13:25.686Z,5.97
2022-11-23T05:15:54.699Z,5.99
2022-11-23T05:18:26.882Z,5.99
2022-11-23T05:20:54.773Z,6.02
2022-11-23T05:23:22.693Z,6.04
2022-11-23T05:25:52.503Z,6.07
2022-11-23T05:31:13.174Z,6.11
2022-11-23T05:33:42.174Z,6.11
2022-11-23T05:36:14.087Z,6.10
2022-11-23T05:38:43.054Z,6.05
2022-11-23T05:41:19.696Z,6.02
2022-11-23T05:43:49.095Z,6.08
2022-11-23T05:46:22.063Z,6.10
2022-11-23T05:48:49.173Z,6.11
2022-11-23T05:51:16.306Z,6.12
2022-11-23T05:53:45.294Z,6.10
2022-11-23T05:56:39.987Z,6.09
2022-11-23T05:59:15.349Z,6.07
2022-11-23T06:01:48.778Z,6.07
2022-11-23T06:04:24.026Z,6.07
2022-11-23T06:06:51.174Z,6.09
2022-11-23T06:09:18.337Z,6.08
2022-11-23T06:11:48.574Z,6.08
2022-11-23T06:14:20.741Z,6.11
2022-11-23T06:16:48.782Z,6.09
2022-11-23T06:19:33.022Z,6.12
2022-11-23T06:22:01.907Z,6.13
2022-11-23T06:24:32.774Z,6.11
2022-11-23T06:27:18.689Z,6.15
2022-11-23T06:29:48.813Z,6.16
2022-11-23T06:32:16.412Z,6.19
2022-11-23T06:34:43.773Z,6.22
2022-11-23T06:37:11.181Z,6.25
2022-11-23T06:39:38.493Z,6.29
2022-11-23T06:42:36.573Z,6.27
2022-11-23T06:44:54.655Z,6.31
2022-11-23T06:47:26.248Z,6.31
2022-11-23T06:49:55.735Z,6.31
2022-11-23T06:52:27.533Z,6.35
2022-11-23T06:54:55.055Z,6.35
2022-11-23T06:57:24.455Z,6.38
2022-11-23T06:59:52.013Z,6.37
2022-11-23T07:02:24.855Z,6.38
2022-11-23T07:04:55.276Z,6.43
2022-11-23T07:07:22.663Z,6.43
2022-11-23T07:10:01.594Z,6.48
2022-11-23T07:12:39.334Z,6.46
2022-11-23T07:15:07.704Z,6.49
2022-11-23T07:17:41.375Z,6.52
2022-11-23T07:20:11.774Z,6.57
2022-11-23T07:22:39.813Z,6.57
2022-11-23T07:25:08.179Z,6.53
2022-11-23T07:27:35.452Z,6.61
2022-11-23T07:30:03.974Z,6.62
2022-11-23T07:32:31.213Z,6.66
2022-11-23T07:34:58.378Z,6.50
2022-11-23T07:37:26.815Z,6.62
2022-11-23T07:39:57.964Z,6.68
2022-11-23T07:42:35.579Z,6.73
2022-11-23T07:45:07.973Z,6.77
2022-11-23T07:47:37.854Z,6.80
2022-11-23T07:50:10.297Z,6.86
2022-11-23T07:52:37.972Z,6.89
2022-11-23T07:55:06.218Z,6.91
2022-11-23T07:57:33.505Z,6.97
2022-11-23T08:00:00.656Z,6.85
2022-11-23T08:02:27.973Z,6.90
2022-11-23T08:04:55.862Z,6.82
2022-11-23T08:07:23.198Z,6.91
2022-11-23T08:09:50.857Z,6.98
2022-11-23T08:12:18.013Z,6.98
2022-11-23T08:14:45.176Z,7.04
2022-11-23T08:17:12.375Z,7.03
2022-11-23T08:19:39.572Z,7.07
2022-11-23T08:22:06.694Z,7.12
2022-11-23T08:24:34.353Z,7.18
2022-11-23T08:27:01.934Z,7.20
2022-11-23T08:29:30.173Z,7.09
2022-11-23T08:31:57.458Z,7.21
2022-11-23T08:34:24.667Z,7.26
2022-11-23T08:36:51.855Z,7.16
2022-11-23T08:39:19.750Z,7.14
2022-11-23T08:41:47.017Z,7.32
2022-11-23T08:44:14.296Z,7.29
2022-11-23T08:46:41.577Z,7.37
2022-11-23T08:49:08.734Z,7.44
2022-11-23T08:51:36.253Z,7.40
2022-11-23T08:54:03.456Z,7.29
2022-11-23T08:56:30.697Z,7.41
2022-11-23T08:58:58.213Z,7.50
2022-11-23T09:01:25.530Z,7.59
2022-11-23T09:03:54.860Z,7.59
2022-11-23T09:06:29.273Z,7.72
2022-11-23T09:08:57.296Z,7.72
2022-11-23T09:11:25.933Z,7.78
2022-11-23T09:13:53.574Z,7.89
2022-11-23T09:16:22.613Z,7.95
2022-11-23T09:18:50.420Z,7.93
2022-11-23T09:21:17.732Z,8.02
2022-11-23T09:23:44.933Z,8.05
2022-11-23T09:26:12.173Z,8.09
2022-11-23T09:28:44.547Z,8.16
2022-11-23T09:31:12.374Z,8.17
2022-11-23T09:33:39.653Z,8.23
2022-11-23T09:36:07.173Z,8.15
2022-11-23T09:38:54.993Z,8.24
2022-11-23T09:41:33.493Z,8.29
2022-11-23T09:44:08.223Z,8.29
2022-11-23T09:47:01.176Z,8.35
2022-11-23T09:50:03.544Z,8.35
2022-11-23T09:52:31.933Z,8.42
2022-11-23T09:55:03.814Z,8.46
2022-11-23T09:57:34.495Z,8.46
2022-11-23T10:00:19.096Z,8.28
2022-11-23T10:02:47.535Z,8.34
2022-11-23T10:05:24.494Z,8.47
2022-11-23T10:08:12.376Z,8.52
2022-11-23T10:10:49.373Z,8.49
2022-11-23T10:13:31.615Z,8.51
2022-11-23T10:16:32.259Z,8.53
2022-11-23T10:19:21.654Z,8.54
2022-11-23T10:22:16.253Z,8.57
2022-11-23T10:24:50.417Z,8.52
2022-11-23T10:27:22.772Z,8.55
2022-11-23T10:29:52.703Z,8.59
2022-11-23T10:32:25.653Z,8.61
2022-11-23T10:35:12.413Z,8.61
2022-11-23T10:37:43.293Z,8.62
2022-11-23T10:40:19.376Z,8.62
2022-11-23T10:42:54.973Z,8.55
2022-11-23T10:45:25.335Z,8.58
2022-11-23T10:48:00.514Z,8.61
2022-11-23T10:50:41.016Z,8.62
2022-11-23T10:53:26.553Z,8.60
2022-11-23T10:55:58.452Z,8.61
2022-11-23T10:58:36.494Z,8.61
2022-11-23T11:01:07.458Z,8.53
2022-11-23T11:03:35.492Z,8.59
2022-11-23T11:06:11.362Z,8.65
2022-11-23T11:09:10.870Z,8.71
2022-11-23T11:11:47.784Z,8.76
2022-11-23T11:14:19.014Z,8.80
2022-11-23T11:16:51.015Z,8.80
2022-11-23T11:19:36.938Z,8.85
2022-11-23T11:22:28.293Z,8.87
2022-11-23T11:24:55.853Z,8.90
2022-11-23T11:27:24.942Z,8.91
2022-11-23T11:29:55.739Z,8.94
2022-11-23T11:32:47.933Z,8.97
2022-11-23T11:35:21.166Z,8.99
2022-11-23T11:37:51.733Z,9.00
2022-11-23T11:40:22.176Z,9.01
2022-11-23T11:42:58.379Z,9.04
2022-11-23T11:45:33.420Z,9.05
2022-11-23T11:48:08.425Z,9.10
2022-11-23T11:50:57.813Z,9.08
2022-11-23T11:53:33.578Z,9.04
2022-11-23T11:56:15.773Z,9.01
2022-11-23T11:58:56.013Z,8.96
2022-11-23T12:13:26.294Z,7.94
2022-11-23T12:16:11.413Z,7.84
2022-11-23T12:19:05.294Z,7.87
2022-11-23T12:21:58.473Z,7.91
2022-11-23T12:24:31.534Z,7.97
2022-11-23T12:27:48.503Z,8.05
2022-11-23T12:30:18.693Z,8.13
2022-11-23T12:33:00.973Z,8.20
2022-11-23T12:35:47.218Z,8.26
2022-11-23T12:38:21.813Z,8.35
2022-11-23T12:41:07.302Z,8.37
2022-11-23T12:43:37.295Z,8.43
2022-11-23T12:46:22.832Z,8.44
2022-11-23T12:48:56.973Z,8.47
2022-11-23T12:51:30.334Z,8.49
2022-11-23T12:54:35.275Z,8.52
2022-11-23T12:57:09.974Z,8.51
2022-11-23T12:59:49.974Z,8.53
2022-11-23T13:02:57.668Z,8.55
2022-11-23T13:05:48.573Z,8.56
2022-11-23T13:08:30.683Z,8.57
2022-11-23T13:11:34.055Z,8.59
2022-11-23T13:14:22.576Z,8.58
2022-11-23T13:17:22.843Z,8.59
2022-11-23T13:20:15.414Z,8.62
2022-11-23T13:22:46.199Z,8.64
2022-11-23T13:25:13.373Z,8.65
2022-11-23T13:27:49.733Z,8.66
2022-11-23T13:33:22.289Z,8.67
2022-11-23T13:36:00.930Z,8.71
2022-11-23T13:38:37.058Z,8.70
2022-11-23T13:41:05.215Z,8.70
2022-11-23T13:43:37.214Z,8.75
2022-11-23T13:46:23.493Z,8.80
2022-11-23T13:48:57.527Z,8.83
2022-11-23T13:51:36.306Z,8.84
2022-11-23T13:54:21.094Z,8.85
2022-11-23T13:56:59.413Z,8.87
2022-11-23T13:59:35.093Z,8.90
2022-11-23T14:02:08.726Z,8.88
2022-11-23T14:04:41.014Z,8.93
2022-11-23T14:07:29.833Z,8.84
2022-11-23T14:10:29.574Z,8.85
2022-11-23T14:13:17.017Z,8.87
2022-11-23T14:15:53.031Z,8.85
2022-11-23T14:18:32.295Z,8.83
2022-11-23T14:21:08.983Z,8.80
2022-11-23T14:24:05.734Z,8.79
2022-11-23T14:26:46.748Z,8.71
2022-11-23T14:29:24.737Z,8.75
2022-11-23T14:32:10.805Z,8.72
2022-11-23T14:34:47.262Z,8.70
2022-11-23T14:37:40.296Z,8.70
2022-11-23T14:40:28.495Z,8.69
2022-11-23T14:42:57.500Z,8.72
2022-11-23T14:45:29.841Z,8.68
2022-11-23T14:47:57.103Z,8.65
2022-11-23T14:50:27.335Z,8.59
2022-11-23T14:52:58.256Z,8.54
2022-11-23T14:55:28.621Z,8.51
2022-11-23T14:58:03.142Z,8.49
2022-11-23T15:00:43.814Z,8.46
2022-11-23T15:06:16.869Z,8.36
2022-11-23T15:08:46.778Z,8.35
2022-11-23T15:11:21.385Z,8.28
2022-11-23T15:13:51.894Z,8.27
2022-11-23T15:16:20.824Z,8.23
2022-11-23T15:18:49.180Z,8.19
2022-11-23T15:21:28.315Z,8.17
2022-11-23T15:23:58.053Z,8.15
2022-11-23T15:29:53.935Z,8.08
2022-11-23T15:32:31.495Z,8.06
2022-11-23T15:35:07.485Z,8.01
2022-11-23T15:37:47.222Z,7.98
2022-11-23T15:40:16.815Z,7.98
2022-11-23T15:42:45.695Z,7.94
2022-11-23T15:45:34.979Z,7.91
2022-11-23T15:48:22.055Z,7.87
2022-11-23T15:50:55.058Z,7.85
2022-11-23T15:53:26.511Z,7.81
2022-11-23T15:55:57.426Z,7.78
2022-11-23T15:58:24.856Z,7.75
2022-11-23T16:01:06.418Z,7.73
2022-11-23T16:03:42.106Z,7.70
2022-11-23T16:06:37.344Z,7.67
2022-11-23T16:12:27.867Z,7.60
2022-11-23T16:14:57.191Z,7.57
2022-11-23T16:17:29.460Z,7.52
2022-11-23T16:20:05.333Z,7.50
2022-11-23T16:22:37.014Z,7.48
2022-11-23T16:25:09.214Z,7.46
2022-11-23T16:27:37.455Z,7.37
2022-11-23T16:30:05.236Z,7.32
2022-11-23T16:32:32.586Z,7.28
2022-11-23T16:35:17.096Z,7.21
2022-11-23T16:37:44.858Z,7.18
2022-11-23T16:40:12.733Z,7.11
2022-11-23T16:42:40.015Z,7.14
2022-11-23T16:45:07.895Z,7.12
2022-11-23T16:47:35.174Z,7.07
2022-11-23T16:50:02.419Z,7.04
2022-11-23T16:52:29.619Z,6.98
2022-11-23T16:54:56.695Z,6.97
2022-11-23T16:57:23.855Z,6.97
2022-11-23T16:59:51.177Z,6.97
2022-11-23T17:02:18.811Z,6.94
2022-11-23T17:04:46.121Z,6.96
2022-11-23T17:07:13.749Z,6.93
2022-11-23T17:09:41.735Z,6.92
2022-11-23T17:12:16.191Z,6.89
2022-11-23T17:14:47.355Z,6.88
2022-11-23T17:17:23.737Z,6.89
2022-11-23T17:19:51.856Z,6.90
2022-11-23T17:22:20.539Z,6.90
2022-11-23T17:24:49.072Z,6.88
2022-11-23T17:27:20.494Z,6.87
2022-11-23T17:29:51.328Z,6.88
2022-11-23T17:32:18.511Z,6.85
2022-11-23T17:34:45.507Z,6.86
2022-11-23T17:37:20.264Z,6.84
2022-11-23T17:39:48.623Z,6.85
2022-11-23T17:42:15.994Z,6.81
2022-11-23T17:44:43.184Z,6.77
2022-11-23T17:47:20.615Z,6.76
2022-11-23T17:49:47.734Z,6.73
2022-11-23T17:52:14.855Z,6.71
2022-11-23T17:54:41.896Z,6.69
2022-11-23T17:57:17.377Z,6.64
2022-11-23T17:59:45.385Z,6.60
2022-11-23T18:02:12.623Z,6.58
2022-11-23T18:04:39.745Z,6.55
2022-11-23T18:07:07.861Z,6.55
2022-11-23T18:09:35.544Z,6.51
2022-11-23T18:12:02.900Z,6.46
2022-11-23T18:14:30.097Z,6.46
2022-11-23T18:16:57.417Z,6.42
2022-11-23T18:19:24.734Z,6.41
2022-11-23T18:21:51.895Z,6.43
2022-11-23T18:24:19.058Z,6.41
2022-11-23T18:26:46.096Z,6.41
2022-11-23T18:29:17.056Z,6.40
2022-11-23T18:31:44.652Z,6.41
2022-11-23T18:34:12.149Z,6.36
2022-11-23T18:36:39.263Z,6.35
2022-11-23T18:39:06.814Z,6.33
2022-11-23T18:41:34.016Z,6.30
2022-11-23T18:44:01.192Z,6.30
2022-11-23T18:46:29.730Z,6.35
2022-11-23T18:48:57.615Z,6.32
2022-11-23T18:51:24.817Z,6.31
2022-11-23T18:53:53.304Z,6.32
2022-11-23T18:56:20.693Z,6.30
2022-11-23T18:58:48.257Z,6.28
2022-11-23T19:01:18.671Z,6.23
2022-11-23T19:03:48.144Z,6.20
2022-11-23T19:06:16.403Z,6.18
2022-11-23T19:08:47.574Z,6.17
2022-11-23T19:11:20.214Z,6.16
2022-11-23T19:13:50.383Z,6.15
2022-11-23T19:16:23.319Z,6.14
2022-11-23T19:18:55.177Z,6.11
2022-11-23T19:21:24.586Z,6.10
2022-11-23T19:23:53.776Z,6.09
2022-11-23T19:26:22.149Z,6.07
2022-11-23T19:28:50.735Z,6.07
2022-11-23T19:31:18.868Z,6.06
2022-11-23T19:33:47.657Z,6.06
2022-11-23T19:36:20.271Z,6.06
2022-11-23T19:38:49.058Z,6.05
2022-11-23T19:41:17.295Z,6.05
2022-11-23T19:43:44.854Z,6.03
2022-11-23T19:46:13.985Z,6.03
2022-11-23T19:48:42.387Z,6.00
2022-11-23T19:51:14.741Z,5.98
2022-11-23T19:54:20.978Z,5.93
2022-11-23T19:56:50.377Z,5.97
2022-11-23T19:59:17.856Z,5.97
2022-11-23T20:01:45.101Z,5.95
2022-11-23T20:04:12.269Z,5.96
2022-11-23T20:06:42.711Z,5.97
2022-11-23T20:09:23.221Z,5.99
2022-11-23T20:11:51.708Z,6.01
2022-11-23T20:14:19.722Z,6.01
2022-11-23T20:16:48.078Z,6.02
2022-11-23T20:19:15.419Z,6.00
2022-11-23T20:21:42.506Z,6.03
2022-11-23T20:24:14.417Z,6.04
2022-11-23T20:26:42.574Z,6.01
2022-11-23T20:29:12.776Z,6.02
2022-11-23T20:31:40.982Z,6.02
2022-11-23T20:34:10.650Z,6.02
2022-11-23T20:36:40.577Z,6.03
2022-11-23T20:39:11.135Z,6.03
2022-11-23T20:41:39.022Z,6.04
2022-11-23T20:44:14.703Z,6.05
2022-11-23T20:49:30.552Z,6.03
2022-11-23T20:51:58.180Z,6.01
2022-11-23T20:54:25.438Z,6.02
2022-11-23T20:56:52.613Z,6.02
2022-11-23T20:59:20.535Z,6.04
2022-11-23T21:01:47.811Z,6.04
2022-11-23T21:04:15.139Z,5.97
2022-11-23T21:06:42.593Z,5.94
2022-11-23T21:09:11.401Z,5.96
2022-11-23T21:11:57.226Z,5.97
2022-11-23T21:14:28.270Z,5.92
2022-11-23T21:16:59.284Z,5.91
2022-11-23T21:19:30.782Z,5.90
2022-11-23T21:21:59.229Z,5.96
2022-11-23T21:24:26.578Z,5.99
2022-11-23T21:26:54.232Z,5.99
2022-11-23T21:29:22.382Z,6.04
2022-11-23T21:31:50.049Z,6.07
2022-11-23T21:34:21.679Z,6.07
2022-11-23T21:36:49.855Z,6.07
2022-11-23T21:39:18.021Z,6.05
2022-11-23T21:41:46.495Z,6.02
2022-11-23T21:44:13.783Z,6.11
2022-11-23T21:46:41.635Z,6.13
2022-11-23T21:49:10.016Z,6.14
2022-11-23T21:51:38.255Z,6.12
2022-11-23T21:54:06.975Z,6.13
2022-11-23T21:56:34.422Z,6.13
2022-11-23T21:59:01.732Z,6.07
2022-11-23T22:01:33.693Z,6.19
2022-11-23T22:04:06.696Z,6.24
2022-11-23T22:06:33.933Z,6.23
2022-11-23T22:09:01.455Z,6.28
2022-11-23T22:11:33.975Z,6.26
2022-11-23T22:14:05.175Z,6.24
2022-11-23T22:16:37.174Z,6.27
2022-11-23T22:19:05.053Z,6.32
2022-11-23T22:21:37.256Z,6.29
2022-11-23T22:24:05.734Z,6.27
2022-11-23T22:26:33.014Z,6.25
2022-11-23T22:29:02.911Z,6.16
2022-11-23T22:31:34.232Z,6.14
2022-11-23T22:34:03.300Z,6.13
2022-11-23T22:36:30.786Z,6.11
2022-11-23T22:39:02.802Z,6.08
2022-11-23T22:41:33.659Z,6.08
2022-11-23T22:44:00.777Z,6.08
2022-11-23T22:46:28.571Z,6.09
2022-11-23T22:48:59.634Z,6.10
2022-11-23T22:51:28.935Z,6.13
2022-11-23T22:53:58.256Z,5.94
2022-11-23T22:56:26.494Z,6.08
2022-11-23T22:58:53.975Z,5.83
2022-11-23T23:01:23.499Z,5.92
2022-11-23T23:03:58.611Z,5.92
2022-11-23T23:06:28.820Z,5.81
2022-11-23T23:08:58.538Z,5.82
2022-11-23T23:11:30.374Z,5.83
2022-11-23T23:13:58.495Z,5.90
2022-11-23T23:16:27.008Z,5.94
2022-11-23T23:18:58.542Z,6.00
2022-11-23T23:21:27.134Z,6.06
2022-11-23T23:23:56.858Z,6.07
2022-11-23T23:26:26.461Z,6.08
2022-11-23T23:28:57.694Z,6.09
2022-11-23T23:31:25.691Z,6.12
2022-11-23T23:33:53.975Z,6.13
2022-11-23T23:36:21.855Z,6.14
2022-11-23T23:38:50.062Z,6.13
2022-11-23T23:41:17.344Z,6.13
2022-11-23T23:43:44.573Z,6.05
2022-11-23T23:46:13.595Z,6.03
2022-11-23T23:48:41.591Z,6.01
2022-11-23T23:51:17.695Z,6.02
2022-11-23T23:53:46.216Z,5.99
2022-11-23T23:56:14.774Z,5.96
2022-11-23T23:58:42.134Z,5.91
